Time;durP1;ratioP1;P1;durP2;ratioP2;P2;SDS_P1;SDS_P2;PMS_P1;PMS_P2;Temp;Humidity;BMP_temperature;BMP_pressure;BME280_temperature;BME280_humidity;BME280_pressure;Samples;Min_cycle;Max_cycle;Signal;HPM_P1;HPM_P2
2022/12/17 13:08:43;;;;;;;126.10;41.20;;;;;;;-5.06;79.10;100908.23;126804;1295;108373;-67
2022/12/17 13:11:54;;;;;;;86.30;30.10;;;;;;;-5.12;79.11;100909.95;126726;1296;108115;-63
2022/12/17 13:15:15;;;;;;;130.70;40.30;;;;;;;-5.11;79.19;100908.03;126860;1295;110580;-68
2022/12/17 13:18:27;;;;;;;93.20;32.50;;;;;;;-5.04;79.32;100904.04;127529;1288;105674;-68
2022/12/17 13:21:33;;;;;;;95.10;31.10;;;;;;;-5.06;79.07;100906.34;127631;1302;108124;-68
2022/12/17 13:24:38;;;;;;;90.30;33.40;;;;;;;-5.07;79.02;100905.30;126928;1294;108014;-67
2022/12/17 13:27:45;;;;;;;95.80;33.80;;;;;;;-5.08;79.06;100909.02;126197;1286;1255790;-67
2022/12/17 13:31:03;;;;;;;76.70;29.50;;;;;;;-5.11;79.13;100908.19;126996;1287;105878;-67
2022/12/17 13:34:17;;;;;;;82.40;31.40;;;;;;;-5.15;79.23;100914.88;126896;1295;108181;-67
2022/12/17 13:37:32;;;;;;;79.00;30.00;;;;;;;-5.23;79.41;100916.47;126703;1294;107944;-67
2022/12/17 13:40:44;;;;;;;85.70;32.40;;;;;;;-5.35;79.60;100917.29;126589;1286;108100;-68
2022/12/17 13:43:53;;;;;;;83.90;32.90;;;;;;;-5.39;79.70;100915.27;126789;1295;107341;-67
2022/12/17 13:46:58;;;;;;;83.00;31.30;;;;;;;-5.33;79.90;100918.95;126460;1293;108438;-68
2022/12/17 13:50:19;;;;;;;86.50;33.90;;;;;;;-5.29;79.89;100924.23;127335;1295;108470;-67
2022/12/17 13:53:25;;;;;;;104.50;41.80;;;;;;;-5.33;79.76;100929.00;126804;1288;107522;-68
2022/12/17 13:56:36;;;;;;;89.40;32.30;;;;;;;-5.40;79.93;100925.89;126925;1295;108163;-68
2022/12/17 13:59:52;;;;;;;80.30;31.80;;;;;;;-5.44;80.14;100933.09;126594;1295;108273;-68
2022/12/17 14:03:08;;;;;;;76.40;29.20;;;;;;;-5.41;80.35;100936.14;126725;1294;107527;-67
2022/12/17 14:06:14;;;;;;;84.10;30.80;;;;;;;-5.44;80.21;100943.30;126847;1295;108145;-68
2022/12/17 14:09:22;;;;;;;79.60;29.70;;;;;;;-5.44;80.16;100948.68;126839;1303;108145;-69
2022/12/17 14:12:33;;;;;;;90.20;31.20;;;;;;;-5.39;80.35;100954.98;126857;1295;107330;-67
2022/12/17 14:15:45;;;;;;;82.80;29.60;;;;;;;-5.35;80.16;100955.94;127046;1294;107222;-68
2022/12/17 14:18:54;;;;;;;84.50;29.10;;;;;;;-5.34;80.04;100957.98;126981;1295;108162;-70
2022/12/17 14:22:00;;;;;;;100.90;36.20;;;;;;;-5.31;80.25;100961.06;126882;1295;107465;-68
2022/12/17 14:25:14;;;;;;;81.60;29.80;;;;;;;-5.38;80.48;100961.71;127035;1295;107607;-68
2022/12/17 14:28:31;;;;;;;94.00;33.90;;;;;;;-5.45;80.60;100966.75;126773;1295;108198;-68
2022/12/17 14:31:36;;;;;;;91.70;34.40;;;;;;;-5.50;80.86;100972.91;126751;1286;108176;-67
2022/12/17 14:34:45;;;;;;;94.10;36.40;;;;;;;-5.52;81.06;100978.31;126930;1303;108401;-68
2022/12/17 14:37:51;;;;;;;92.30;31.80;;;;;;;-5.48;80.91;100978.41;126960;1295;108160;-67
2022/12/17 14:42:24;;;;;;;97.80;34.70;;;;;;;-5.42;80.89;100982.29;126956;1294;108210;-67
2022/12/17 14:44:31;;;;;;;85.20;31.40;;;;;;;-5.39;80.76;100986.70;126981;1295;108138;-67
2022/12/17 14:47:37;;;;;;;95.20;34.20;;;;;;;-5.41;80.81;100993.87;126955;1295;108175;-69
2022/12/17 14:50:43;;;;;;;99.90;38.60;;;;;;;-5.47;80.99;100996.60;126972;1295;107510;-69
2022/12/17 14:53:48;;;;;;;92.70;32.20;;;;;;;-5.48;80.82;101004.25;127029;1295;108188;-67
2022/12/17 14:56:56;;;;;;;79.10;29.00;;;;;;;-5.53;81.02;101010.92;126758;1296;108143;-67
2022/12/17 15:00:01;;;;;;;88.30;31.50;;;;;;;-5.54;80.98;101017.55;127183;1275;107530;-68
2022/12/17 15:03:09;;;;;;;100.70;37.80;;;;;;;-5.58;81.34;101024.02;126997;1278;108273;-71
2022/12/17 15:06:19;;;;;;;88.40;33.10;;;;;;;-5.57;81.39;101025.06;127215;1272;107480;-69
2022/12/17 15:09:25;;;;;;;123.80;47.50;;;;;;;-5.61;81.41;101025.32;126945;1292;108120;-69
2022/12/17 15:12:30;;;;;;;93.50;35.40;;;;;;;-5.72;81.65;101026.58;127073;1278;105987;-67
2022/12/17 15:15:35;;;;;;;104.70;43.00;;;;;;;-5.79;81.39;101024.13;126767;1292;108140;-66
2022/12/17 15:18:41;;;;;;;108.30;40.80;;;;;;;-5.81;82.01;101035.60;126814;1288;108162;-68
2022/12/17 15:21:46;;;;;;;84.60;32.40;;;;;;;-5.85;82.08;101042.25;126822;1279;108501;-69
2022/12/17 15:24:51;;;;;;;86.60;34.30;;;;;;;-5.86;81.80;101047.64;126610;1286;106639;-69
2022/12/17 15:27:57;;;;;;;82.40;30.90;;;;;;;-5.81;81.56;101052.23;126798;1279;108314;-71
2022/12/17 15:31:03;;;;;;;91.60;33.70;;;;;;;-5.76;81.61;101054.05;127091;1279;108101;-70
2022/12/17 15:34:11;;;;;;;135.60;50.20;;;;;;;-5.71;81.48;101061.56;126876;1278;107521;-69
2022/12/17 15:37:19;;;;;;;89.10;33.70;;;;;;;-5.69;81.28;101058.94;127119;1279;107502;-69
2022/12/17 15:40:24;;;;;;;101.50;38.70;;;;;;;-5.71;81.47;101060.19;127046;1294;108637;-69
2022/12/17 15:43:31;;;;;;;102.00;40.10;;;;;;;-5.73;81.10;101070.95;127111;1279;107862;-68
2022/12/17 15:46:37;;;;;;;92.30;36.90;;;;;;;-5.78;81.42;101075.73;127021;1294;107849;-68
2022/12/17 15:49:42;;;;;;;85.20;34.70;;;;;;;-5.85;81.25;101078.30;126874;1286;107887;-69
2022/12/17 15:52:48;;;;;;;76.00;29.70;;;;;;;-5.91;81.62;101078.06;126917;1270;108261;-69
2022/12/17 15:56:00;;;;;;;85.90;36.80;;;;;;;-5.93;81.23;101073.94;126830;1279;107956;-72
2022/12/17 15:59:06;;;;;;;82.60;32.20;;;;;;;-5.91;81.62;101079.61;127219;1285;106546;-70
2022/12/17 16:02:12;;;;;;;81.30;31.60;;;;;;;-5.87;81.28;101084.23;127067;1278;109315;-69
2022/12/17 16:05:18;;;;;;;107.60;37.70;;;;;;;-5.86;81.55;101089.23;127488;1272;107388;-70
2022/12/17 16:08:23;;;;;;;91.20;33.90;;;;;;;-5.92;81.54;101089.87;127163;1279;107840;-71
2022/12/17 16:11:28;;;;;;;94.60;33.20;;;;;;;-6.00;81.58;101089.88;127423;1278;107498;-70
2022/12/17 16:14:34;;;;;;;91.70;33.20;;;;;;;-6.04;81.46;101095.13;126903;1279;108431;-70
2022/12/17 16:17:39;;;;;;;78.70;29.50;;;;;;;-6.02;81.61;101097.18;126853;1285;107389;-71
2022/12/17 16:20:45;;;;;;;81.50;32.50;;;;;;;-5.96;81.86;101107.27;126878;1282;107439;-71
2022/12/17 16:23:50;;;;;;;71.70;28.50;;;;;;;-5.90;81.40;101110.96;127293;1278;107583;-67
2022/12/17 16:26:55;;;;;;;70.20;25.60;;;;;;;-5.87;81.34;101112.81;127258;1272;109250;-68
2022/12/17 16:30:02;;;;;;;75.10;29.60;;;;;;;-5.86;81.21;101113.67;126869;1279;108161;-71
2022/12/17 16:33:07;;;;;;;71.00;28.90;;;;;;;-5.89;81.33;101115.45;126738;1279;107462;-69
2022/12/17 16:36:15;;;;;;;77.40;30.90;;;;;;;-5.93;81.47;101118.12;126981;1286;108124;-73
2022/12/17 16:39:21;;;;;;;77.20;31.20;;;;;;;-5.91;81.55;101122.08;127366;1278;107508;-69
2022/12/17 16:42:27;;;;;;;79.20;32.90;;;;;;;-5.92;81.67;101125.19;128129;1288;107429;-70
2022/12/17 16:45:32;;;;;;;72.40;29.50;;;;;;;-5.96;81.42;101128.58;131262;1296;107965;-71
2022/12/17 16:48:39;;;;;;;56.20;22.50;;;;;;;-6.01;81.48;101135.61;127700;1279;107539;-73
2022/12/17 16:51:46;;;;;;;51.40;22.40;;;;;;;-6.10;81.28;101141.83;127581;1271;107982;-72
2022/12/17 16:54:52;;;;;;;51.20;19.60;;;;;;;-6.18;81.47;101139.89;126656;1292;107477;-71
2022/12/17 16:57:57;;;;;;;59.00;25.30;;;;;;;-6.20;81.62;101145.45;126790;1286;108066;-70
2022/12/17 17:01:02;;;;;;;49.20;19.70;;;;;;;-6.22;81.73;101141.33;126695;1279;107170;-71
2022/12/17 17:04:09;;;;;;;65.50;26.00;;;;;;;-6.25;81.78;101147.45;126671;1279;108430;-72
2022/12/17 17:07:14;;;;;;;57.80;22.80;;;;;;;-6.26;81.78;101155.77;126849;1282;107621;-71
2022/12/17 17:10:20;;;;;;;47.10;19.50;;;;;;;-6.26;81.88;101157.50;126821;1272;108141;-69
2022/12/17 17:13:25;;;;;;;52.30;20.70;;;;;;;-6.29;81.91;101162.23;126873;1272;107242;-76
2022/12/17 17:16:32;;;;;;;48.90;19.40;;;;;;;-6.32;82.24;101168.50;126883;1285;107518;-75
2022/12/17 17:19:38;;;;;;;46.90;19.00;;;;;;;-6.32;81.95;101171.43;126796;1296;108105;-75
2022/12/17 17:22:43;;;;;;;52.60;23.60;;;;;;;-6.23;81.77;101173.73;126802;1295;107666;-74
2022/12/17 17:25:49;;;;;;;57.50;23.20;;;;;;;-6.24;81.46;101176.16;126854;1295;107485;-73
2022/12/17 17:28:54;;;;;;;54.50;22.60;;;;;;;-6.26;81.59;101178.98;126795;1286;107477;-72
2022/12/17 17:31:59;;;;;;;62.50;22.70;;;;;;;-6.38;81.58;101184.16;126727;1286;106514;-70
2022/12/17 17:35:06;;;;;;;79.90;28.70;;;;;;;-6.50;82.06;101189.20;126521;1286;108454;-67
2022/12/17 17:38:11;;;;;;;120.80;36.20;;;;;;;-6.55;82.36;101203.61;126747;1280;108367;-67
2022/12/17 17:41:19;;;;;;;57.00;23.50;;;;;;;-6.49;82.36;101202.69;126757;1272;107978;-69
2022/12/17 17:44:24;;;;;;;56.40;23.60;;;;;;;-6.43;82.10;101200.16;126554;1288;106250;-67
2022/12/17 17:47:30;;;;;;;58.30;23.20;;;;;;;-6.43;82.53;101194.45;126573;1294;108155;-69
2022/12/17 17:50:36;;;;;;;108.60;33.50;;;;;;;-6.46;82.90;101200.04;126773;1278;106153;-70
2022/12/17 17:53:42;;;;;;;64.00;24.60;;;;;;;-6.45;83.24;101202.78;126706;1286;108383;-71
2022/12/17 17:56:47;;;;;;;85.10;30.00;;;;;;;-6.42;82.90;101201.88;126712;1286;108563;-69
2022/12/17 17:59:52;;;;;;;137.90;36.10;;;;;;;-6.31;82.76;101202.42;126691;1296;108352;-69
2022/12/17 18:02:58;;;;;;;73.80;24.00;;;;;;;-6.22;82.87;101201.75;126682;1295;105698;-69
2022/12/17 18:06:05;;;;;;;229.70;56.90;;;;;;;-6.13;82.91;101203.52;126725;1286;107614;-67
2022/12/17 18:09:11;;;;;;;112.60;32.90;;;;;;;-6.04;82.75;101213.60;126775;1292;107560;-68
2022/12/17 18:15:40;;;;;;;63.90;24.70;;;;;;;-6.03;82.73;101220.01;126685;1296;108079;-69
2022/12/17 18:18:46;;;;;;;68.70;27.40;;;;;;;-6.00;82.72;101224.11;126923;1291;108004;-69
2022/12/17 18:21:52;;;;;;;83.10;31.30;;;;;;;-5.97;82.77;101231.34;127092;1296;107563;-71
2022/12/17 18:24:58;;;;;;;67.80;27.70;;;;;;;-5.96;82.79;101230.98;127109;1292;108015;-77
2022/12/17 18:28:03;;;;;;;67.60;25.80;;;;;;;-5.97;82.83;101238.09;126974;1296;109137;-75
2022/12/17 18:31:12;;;;;;;77.20;26.80;;;;;;;-5.92;82.78;101239.38;126886;1288;107244;-73
2022/12/17 18:34:20;;;;;;;67.80;25.80;;;;;;;-5.84;82.83;101238.56;126934;1295;106612;-74
2022/12/17 18:37:25;;;;;;;57.00;22.40;;;;;;;-5.71;82.80;101240.77;126932;1296;107499;-76
2022/12/17 18:40:31;;;;;;;63.00;25.90;;;;;;;-5.61;82.49;101243.38;126966;1296;107544;-71
2022/12/17 18:43:39;;;;;;;71.70;26.60;;;;;;;-5.53;82.25;101252.95;126552;1295;107984;-72
2022/12/17 18:46:44;;;;;;;104.20;36.00;;;;;;;-5.44;82.54;101260.59;126995;1296;107633;-71
2022/12/17 18:49:50;;;;;;;91.10;33.60;;;;;;;-5.40;82.07;101265.73;126901;1295;107518;-71
2022/12/17 18:52:55;;;;;;;74.00;30.10;;;;;;;-5.38;82.33;101267.07;126662;1295;106887;-70
2022/12/17 18:56:08;;;;;;;73.60;29.60;;;;;;;-5.38;82.62;101267.25;126742;1296;108000;-72
2022/12/17 18:59:15;;;;;;;85.60;31.30;;;;;;;-5.39;82.34;101270.04;127086;1289;107650;-72
2022/12/17 19:02:20;;;;;;;74.50;30.70;;;;;;;-5.39;82.42;101265.02;127231;1295;107505;-74
2022/12/17 19:05:25;;;;;;;88.20;34.20;;;;;;;-5.38;82.40;101269.34;127324;1287;107560;-70
2022/12/17 19:08:33;;;;;;;101.60;35.80;;;;;;;-5.38;82.60;101276.79;126955;1285;107507;-72
2022/12/17 19:11:39;;;;;;;81.70;33.70;;;;;;;-5.39;82.43;101274.20;129519;1286;107282;-72
2022/12/17 19:14:44;;;;;;;72.00;28.10;;;;;;;-5.35;82.62;101275.17;127545;1286;107357;-72
2022/12/17 19:17:49;;;;;;;57.00;23.70;;;;;;;-5.26;82.63;101279.88;127412;1286;109586;-73
2022/12/17 19:20:59;;;;;;;58.00;25.70;;;;;;;-5.13;82.59;101278.80;127001;1296;107309;-71
2022/12/17 19:24:07;;;;;;;64.00;26.50;;;;;;;-5.01;82.43;101277.16;127275;1286;107451;-71
2022/12/17 19:27:13;;;;;;;71.30;30.80;;;;;;;-4.94;82.43;101280.66;127287;1303;106543;-73
2022/12/17 19:30:18;;;;;;;69.90;29.20;;;;;;;-4.93;82.47;101273.02;127128;1291;107474;-72
2022/12/17 19:33:23;;;;;;;47.30;21.00;;;;;;;-4.96;82.68;101276.37;127855;1286;107904;-71
2022/12/17 19:36:31;;;;;;;53.70;23.30;;;;;;;-5.02;82.82;101277.52;131272;1288;107545;-71
2022/12/17 19:39:37;;;;;;;76.60;27.80;;;;;;;-5.04;82.87;101283.29;128329;1295;107526;-71
2022/12/17 19:42:42;;;;;;;69.70;28.40;;;;;;;-5.00;83.03;101290.48;126600;1288;107397;-69
2022/12/17 19:45:49;;;;;;;69.20;26.20;;;;;;;-4.99;83.29;101283.71;127174;1279;108062;-69
2022/12/17 19:48:56;;;;;;;94.90;35.60;;;;;;;-4.99;83.50;101287.69;126679;1288;106216;-70
2022/12/17 19:52:01;;;;;;;119.20;45.70;;;;;;;-4.97;83.70;101294.60;126926;1286;107268;-70
2022/12/17 19:55:08;;;;;;;90.30;37.90;;;;;;;-4.90;83.96;101300.89;126941;1282;108098;-70
2022/12/17 19:58:13;;;;;;;79.80;33.90;;;;;;;-4.85;83.82;101306.35;126859;1286;107417;-70
2022/12/17 20:01:21;;;;;;;83.60;33.60;;;;;;;-4.78;84.06;101313.00;126844;1302;107382;-73
2022/12/17 20:04:27;;;;;;;99.40;37.40;;;;;;;-4.73;83.88;101317.41;127168;1279;107611;-73
2022/12/17 20:07:32;;;;;;;65.40;27.00;;;;;;;-4.70;83.84;101322.92;127088;1284;107656;-72
2022/12/17 20:10:38;;;;;;;74.80;30.30;;;;;;;-4.69;83.90;101322.90;127033;1285;107434;-75
2022/12/17 20:13:43;;;;;;;60.00;28.10;;;;;;;-4.66;83.88;101327.36;127074;1286;107284;-72
2022/12/17 20:16:50;;;;;;;77.20;31.10;;;;;;;-4.66;83.83;101328.56;127079;1293;107653;-73
2022/12/17 20:19:55;;;;;;;56.30;23.00;;;;;;;-4.62;84.15;101329.88;127119;1295;108189;-73
2022/12/17 20:23:01;;;;;;;47.00;19.60;;;;;;;-4.58;84.47;101332.92;127004;1295;107511;-71
2022/12/17 20:26:09;;;;;;;49.00;22.50;;;;;;;-4.51;84.54;101338.16;127098;1296;107564;-72
2022/12/17 20:29:15;;;;;;;60.10;23.50;;;;;;;-4.43;84.53;101344.77;127132;1285;107388;-73
2022/12/17 20:32:21;;;;;;;52.30;21.00;;;;;;;-4.35;84.19;101343.91;126881;1295;106541;-71
2022/12/17 20:35:26;;;;;;;56.80;22.90;;;;;;;-4.30;84.49;101352.36;126652;1302;107873;-73
2022/12/17 20:38:32;;;;;;;47.80;20.90;;;;;;;-4.29;84.14;101352.65;126918;1296;107459;-73
2022/12/17 20:41:39;;;;;;;45.60;18.90;;;;;;;-4.28;84.31;101351.77;126941;1295;106870;-74
2022/12/17 20:44:45;;;;;;;54.20;24.50;;;;;;;-4.29;84.39;101354.75;126936;1295;106529;-74
2022/12/17 20:47:52;;;;;;;46.50;17.80;;;;;;;-4.27;84.20;101359.58;126977;1286;107493;-74
2022/12/17 20:50:57;;;;;;;44.70;19.40;;;;;;;-4.24;84.29;101359.52;126949;1295;109105;-75
2022/12/17 20:54:03;;;;;;;43.50;17.40;;;;;;;-4.19;84.08;101364.44;126983;1295;107648;-74
2022/12/17 20:57:09;;;;;;;47.10;20.20;;;;;;;-4.10;84.31;101373.46;127071;1302;107236;-73
2022/12/17 21:00:17;;;;;;;37.60;16.00;;;;;;;-4.05;84.01;101382.04;126939;1296;107534;-73
2022/12/17 21:03:22;;;;;;;42.30;17.80;;;;;;;-4.02;84.12;101380.23;126799;1296;107388;-73
2022/12/17 21:06:33;;;;;;;38.90;16.90;;;;;;;-4.01;84.03;101383.88;126806;1296;107924;-74
2022/12/17 21:09:38;;;;;;;38.10;16.40;;;;;;;-4.00;84.15;101390.99;126894;1294;106328;-74
2022/12/17 21:16:10;;;;;;;44.10;17.30;;;;;;;-3.91;83.80;101395.14;126869;1302;107368;-73
2022/12/17 21:19:18;;;;;;;50.30;20.20;;;;;;;-3.82;83.89;101400.34;126923;1302;106679;-74
2022/12/17 21:22:23;;;;;;;45.70;19.20;;;;;;;-3.79;83.92;101397.48;126971;1296;107541;-72
2022/12/17 21:25:29;;;;;;;48.20;19.10;;;;;;;-3.78;84.00;101397.64;126863;1295;106520;-73
2022/12/17 21:28:36;;;;;;;57.60;24.50;;;;;;;-3.77;83.94;101396.57;126873;1296;107516;-73
2022/12/17 21:31:44;;;;;;;83.50;34.30;;;;;;;-3.74;83.82;101401.20;127092;1286;107528;-75
2022/12/17 21:34:50;;;;;;;55.60;22.30;;;;;;;-3.69;84.00;101398.83;127057;1295;109196;-74
2022/12/17 21:37:55;;;;;;;60.50;25.40;;;;;;;-3.67;84.12;101405.58;127073;1291;107548;-74
2022/12/17 21:41:07;;;;;;;49.50;21.00;;;;;;;-3.64;84.28;101404.80;126677;1295;107520;-73
2022/12/17 21:44:14;;;;;;;52.80;22.10;;;;;;;-3.58;83.99;101401.89;127001;1294;107630;-73
2022/12/17 21:47:20;;;;;;;56.60;22.00;;;;;;;-3.46;84.23;101408.23;126677;1296;107590;-74
2022/12/17 21:50:25;;;;;;;45.90;19.60;;;;;;;-3.39;84.28;101415.53;126828;1296;107480;-73
2022/12/17 21:53:31;;;;;;;48.30;20.80;;;;;;;-3.37;84.02;101426.81;126989;1291;107623;-73
2022/12/17 21:56:36;;;;;;;68.50;24.00;;;;;;;-3.39;83.99;101427.54;126781;1301;107308;-72
2022/12/17 21:59:42;;;;;;;159.30;45.30;;;;;;;-3.44;83.90;101432.37;127165;1295;109317;-72
2022/12/17 22:02:48;;;;;;;45.90;18.40;;;;;;;-3.48;84.05;101437.33;126959;1296;108112;-73
2022/12/17 22:05:54;;;;;;;73.50;27.00;;;;;;;-3.52;84.26;101442.98;126899;1286;107601;-73
2022/12/17 22:09:00;;;;;;;59.00;21.00;;;;;;;-3.48;84.41;101447.25;126806;1302;107513;-72
2022/12/17 22:15:37;;;;;;;88.90;27.40;;;;;;;-3.42;84.35;101455.44;126719;1301;107424;-73
2022/12/17 22:18:43;;;;;;;54.10;19.80;;;;;;;-3.42;84.26;101459.63;126791;1295;107382;-73
2022/12/17 22:21:49;;;;;;;59.40;20.50;;;;;;;-3.45;84.49;101458.13;127076;1295;107523;-74
2022/12/17 22:24:54;;;;;;;61.40;22.00;;;;;;;-3.45;84.89;101459.87;126928;1292;108625;-73
2022/12/17 22:27:59;;;;;;;65.70;24.50;;;;;;;-3.47;84.84;101454.19;126924;1302;107514;-73
2022/12/17 22:34:30;;;;;;;52.80;19.70;;;;;;;-3.44;84.92;101461.93;126938;1288;107459;-73
2022/12/17 22:37:35;;;;;;;70.60;25.60;;;;;;;-3.38;85.13;101469.11;126913;1296;107407;-73
2022/12/17 22:40:41;;;;;;;72.00;23.10;;;;;;;-3.38;85.14;101467.38;126902;1291;107364;-73
2022/12/17 22:43:46;;;;;;;54.20;20.30;;;;;;;-3.40;85.27;101467.77;126859;1293;107812;-72
2022/12/17 22:46:52;;;;;;;145.10;53.90;;;;;;;-3.37;85.17;101471.36;126848;1293;107609;-74
2022/12/17 22:49:57;;;;;;;48.40;21.00;;;;;;;-3.29;85.74;101474.14;126808;1296;107213;-71
2022/12/17 22:53:03;;;;;;;49.50;20.20;;;;;;;-3.28;85.78;101476.02;126801;1292;107482;-73
2022/12/17 22:56:09;;;;;;;64.30;25.00;;;;;;;-3.24;85.34;101481.85;126797;1299;107479;-73
2022/12/17 22:59:18;;;;;;;55.90;22.50;;;;;;;-3.23;85.49;101487.90;126960;1300;106615;-73
2022/12/17 23:02:23;;;;;;;56.50;22.10;;;;;;;-3.27;85.58;101494.09;126814;1292;106504;-74
2022/12/17 23:05:30;;;;;;;59.50;24.10;;;;;;;-3.33;85.77;101492.67;126878;1296;107219;-73
2022/12/17 23:08:36;;;;;;;72.60;25.30;;;;;;;-3.39;85.79;101498.19;126797;1299;107940;-72
2022/12/17 23:11:41;;;;;;;83.80;29.90;;;;;;;-3.43;86.12;101496.89;126831;1296;107517;-74
2022/12/17 23:14:46;;;;;;;65.60;25.30;;;;;;;-3.41;85.87;101504.33;126933;1294;107434;-72
2022/12/17 23:17:54;;;;;;;56.50;21.70;;;;;;;-3.41;86.19;101512.66;126890;1295;107374;-72
2022/12/17 23:21:07;;;;;;;60.00;24.00;;;;;;;-3.44;86.15;101514.99;126807;1296;107598;-72
2022/12/17 23:24:12;;;;;;;92.60;30.50;;;;;;;-3.44;86.36;101515.36;126855;1296;107523;-73
2022/12/17 23:27:17;;;;;;;63.90;25.30;;;;;;;-3.47;86.52;101510.54;126808;1294;107459;-73
2022/12/17 23:30:23;;;;;;;69.50;25.30;;;;;;;-3.45;86.30;101517.30;126814;1293;107506;-73
2022/12/17 23:33:28;;;;;;;63.10;25.20;;;;;;;-3.41;86.41;101521.02;126888;1302;107219;-72
2022/12/17 23:36:35;;;;;;;67.40;25.40;;;;;;;-3.44;86.73;101531.35;126954;1300;107518;-73
2022/12/17 23:39:40;;;;;;;60.40;23.30;;;;;;;-3.51;86.51;101531.83;126905;1292;107517;-72
2022/12/17 23:42:45;;;;;;;70.70;27.10;;;;;;;-3.57;86.57;101537.88;126875;1299;107691;-75
2022/12/17 23:45:51;;;;;;;60.80;24.10;;;;;;;-3.60;86.32;101547.66;126890;1294;107487;-74
2022/12/17 23:48:56;;;;;;;66.70;25.80;;;;;;;-3.60;86.78;101554.81;126890;1299;107506;-72
2022/12/17 23:52:02;;;;;;;62.40;24.70;;;;;;;-3.60;86.52;101561.06;126909;1296;107261;-71
2022/12/17 23:55:10;;;;;;;56.40;22.90;;;;;;;-3.52;86.50;101565.09;126821;1295;107364;-73
2022/12/17 23:58:15;;;;;;;57.20;23.00;;;;;;;-3.43;86.31;101573.42;126956;1296;105895;-74
